Time;durP1;ratioP1;P1;durP2;ratioP2;P2;SDS_P1;SDS_P2;PMS_P1;PMS_P2;Temp;Humidity;BMP_temperature;BMP_pressure;BME280_temperature;BME280_humidity;BME280_pressure;Samples;Min_cycle;Max_cycle;Signal;HPM_P1;HPM_P2
2022/09/12 00:01:30;;;;;;;;;;;;;;;15.14;83.74;100059.50;5050783;28;19909;-86
2022/09/12 00:03:57;;;;;;;;;;;;;;;14.96;84.40;100066.50;5052781;28;19916;-87
2022/09/12 00:06:24;;;;;;;;;;;;;;;14.93;84.68;100055.00;5054075;28;19913;-86
2022/09/12 00:08:59;;;;;;;;;;;;;;;15.02;84.39;100060.69;5051224;28;19913;-85
2022/09/12 00:11:25;;;;;;;;;;;;;;;14.79;84.80;100056.72;5050847;28;19913;-86
2022/09/12 00:13:50;;;;;;;;;;;;;;;14.78;84.51;100055.09;5050020;28;19935;-85
2022/09/12 00:16:17;;;;;;;;;;;;;;;14.82;84.78;100054.25;5050758;28;19913;-86
2022/09/12 00:18:44;;;;;;;;;;;;;;;15.11;82.45;100060.09;5049787;28;19917;-86
2022/09/12 00:21:10;;;;;;;;;;;;;;;15.01;83.48;100052.75;5050527;28;19908;-85
2022/09/12 00:23:35;;;;;;;;;;;;;;;14.80;84.67;100042.75;5051020;28;20000;-85
2022/09/12 00:26:02;;;;;;;;;;;;;;;14.79;85.43;100046.56;5056495;28;19915;-86
2022/09/12 00:28:28;;;;;;;;;;;;;;;15.02;83.17;100036.00;5057134;28;20445;-86
2022/09/12 00:30:53;;;;;;;;;;;;;;;15.14;82.97;100038.34;5057444;28;19959;-87
2022/09/12 00:33:18;;;;;;;;;;;;;;;15.09;82.68;100037.59;5057186;28;19989;-85
2022/09/12 00:35:44;;;;;;;;;;;;;;;14.93;83.92;100029.47;5057431;28;19944;-86
2022/09/12 00:38:11;;;;;;;;;;;;;;;15.17;83.25;100023.22;5055005;28;20373;-86
2022/09/12 00:40:36;;;;;;;;;;;;;;;14.96;83.65;100022.59;5055787;28;19913;-87
2022/09/12 00:43:01;;;;;;;;;;;;;;;15.04;83.98;100017.31;5057689;28;20681;-87
2022/09/12 00:45:27;;;;;;;;;;;;;;;14.92;83.01;100017.69;5057572;28;20001;-87
2022/09/12 00:47:53;;;;;;;;;;;;;;;14.87;84.76;100017.72;5057053;28;20353;-87
2022/09/12 00:50:19;;;;;;;;;;;;;;;14.93;85.02;100016.56;5056185;28;20426;-86
2022/09/12 00:52:56;;;;;;;;;;;;;;;15.11;83.19;100016.94;5056837;28;20000;-87
2022/09/12 00:55:30;;;;;;;;;;;;;;;14.88;83.93;100018.53;5057601;28;19923;-87
2022/09/12 00:58:01;;;;;;;;;;;;;;;14.90;83.25;100008.09;5056835;28;20015;-85
2022/09/12 01:00:27;;;;;;;;;;;;;;;14.63;83.23;100003.88;5052709;28;19920;-86
2022/09/12 01:03:04;;;;;;;;;;;;;;;14.42;84.69;100001.31;5057100;28;19917;-86
2022/09/12 01:05:32;;;;;;;;;;;;;;;14.67;83.93;100003.03;5056371;28;19915;-85
2022/09/12 01:07:59;;;;;;;;;;;;;;;14.88;82.44;99997.41;5055621;28;20050;-84
2022/09/12 01:10:25;;;;;;;;;;;;;;;14.98;81.86;100007.47;5055177;28;19974;-87
2022/09/12 01:12:50;;;;;;;;;;;;;;;14.77;83.09;100004.88;5055854;28;20415;-86
2022/09/12 01:15:15;;;;;;;;;;;;;;;14.56;84.74;100002.28;5055568;28;19936;-86
2022/09/12 01:17:56;;;;;;;;;;;;;;;14.23;86.71;100001.97;5054178;28;19932;-87
2022/09/12 01:20:25;;;;;;;;;;;;;;;14.61;85.14;100003.34;5055307;28;20570;-85
2022/09/12 01:23:02;;;;;;;;;;;;;;;14.63;84.01;99998.41;5057097;28;19908;-86
2022/09/12 01:25:34;;;;;;;;;;;;;;;14.73;82.69;100001.06;5057036;28;19908;-86
2022/09/12 01:28:07;;;;;;;;;;;;;;;14.27;84.30;99997.56;5057067;28;20342;-87
2022/09/12 01:30:47;;;;;;;;;;;;;;;14.29;84.91;99994.53;5056355;28;19913;-86
2022/09/12 01:33:32;;;;;;;;;;;;;;;14.49;83.18;100010.03;5056320;28;19920;-87
2022/09/12 01:36:08;;;;;;;;;;;;;;;14.21;84.93;100004.19;5055243;28;20361;-84
2022/09/12 01:38:58;;;;;;;;;;;;;;;14.24;85.33;99993.47;5055972;28;19931;-87
2022/09/12 01:41:23;;;;;;;;;;;;;;;13.96;86.64;99997.72;5055615;28;19951;-86
2022/09/12 01:43:51;;;;;;;;;;;;;;;14.00;87.03;99994.16;5055131;28;19908;-87
2022/09/12 01:46:35;;;;;;;;;;;;;;;14.04;86.76;99996.31;5056572;28;19913;-86
2022/09/12 01:49:20;;;;;;;;;;;;;;;13.96;86.66;99995.00;5053832;28;20019;-87
2022/09/12 01:51:56;;;;;;;;;;;;;;;13.82;88.78;99992.88;5056036;28;20532;-87
2022/09/12 01:54:34;;;;;;;;;;;;;;;14.26;86.42;99986.88;5056922;28;19912;-86
2022/09/12 01:57:02;;;;;;;;;;;;;;;14.43;84.81;99989.22;5052569;28;19963;-84
2022/09/12 01:59:40;;;;;;;;;;;;;;;14.36;84.19;99989.53;5053643;28;19913;-86
2022/09/12 02:02:12;;;;;;;;;;;;;;;14.07;86.11;99982.88;5055663;28;19908;-86
2022/09/12 02:04:45;;;;;;;;;;;;;;;14.22;84.80;99979.22;5055753;28;19915;-86
2022/09/12 02:07:13;;;;;;;;;;;;;;;14.33;83.62;99982.72;5056043;28;19977;-86
2022/09/12 02:09:45;;;;;;;;;;;;;;;14.34;83.27;99976.13;5054647;28;19913;-86
2022/09/12 02:12:13;;;;;;;;;;;;;;;13.88;85.88;99978.03;5055468;28;19995;-85
2022/09/12 02:14:45;;;;;;;;;;;;;;;13.87;87.02;99970.91;5055620;28;20316;-86
2022/09/12 02:17:15;;;;;;;;;;;;;;;14.33;84.13;99974.50;5054557;28;20254;-85
2022/09/12 02:19:46;;;;;;;;;;;;;;;14.17;84.69;99978.44;5046457;28;19913;-85
2022/09/12 02:22:14;;;;;;;;;;;;;;;14.13;84.61;99969.97;5055807;28;19909;-84
2022/09/12 02:24:42;;;;;;;;;;;;;;;14.15;84.93;99978.72;5054195;28;19974;-85
2022/09/12 02:27:11;;;;;;;;;;;;;;;14.23;83.91;99971.81;5055327;28;19922;-85
2022/09/12 02:29:36;;;;;;;;;;;;;;;14.19;84.09;99973.50;5055160;28;19924;-86
2022/09/12 02:32:11;;;;;;;;;;;;;;;13.92;85.99;99974.72;5055259;28;19909;-86
2022/09/12 02:34:42;;;;;;;;;;;;;;;13.79;86.86;99966.00;5054999;28;20407;-86
2022/09/12 02:37:16;;;;;;;;;;;;;;;13.96;85.63;99964.84;5054541;28;19915;-85
2022/09/12 02:39:42;;;;;;;;;;;;;;;13.81;86.53;99966.56;5045897;28;19919;-84
2022/09/12 02:42:07;;;;;;;;;;;;;;;13.78;87.12;99969.88;5046607;28;20002;-86
2022/09/12 02:44:34;;;;;;;;;;;;;;;14.04;85.69;99968.91;5055364;28;19916;-86
2022/09/12 02:47:03;;;;;;;;;;;;;;;13.96;86.01;99973.06;5055030;28;19999;-85
2022/09/12 02:49:28;;;;;;;;;;;;;;;13.89;84.59;99963.22;5041754;28;20084;-85
2022/09/12 02:51:53;;;;;;;;;;;;;;;13.99;85.52;99967.03;5052622;28;20047;-86
2022/09/12 02:54:19;;;;;;;;;;;;;;;13.44;88.41;99960.41;5055129;28;19908;-85
2022/09/12 02:56:45;;;;;;;;;;;;;;;13.97;85.86;99955.53;5052657;28;19916;-86
2022/09/12 02:59:13;;;;;;;;;;;;;;;13.98;86.22;99954.41;5053792;28;19917;-86
2022/09/12 03:02:02;;;;;;;;;;;;;;;14.10;85.56;99954.91;5053972;28;20533;-86
2022/09/12 03:04:39;;;;;;;;;;;;;;;14.14;85.19;99949.66;5053848;28;19966;-86
2022/09/12 03:07:20;;;;;;;;;;;;;;;14.16;85.42;99946.63;5054843;28;20075;-86
2022/09/12 03:09:57;;;;;;;;;;;;;;;14.30;84.76;99936.66;5053748;28;19913;-86
2022/09/12 03:12:39;;;;;;;;;;;;;;;14.50;83.56;99939.53;5054997;28;20353;-85
2022/09/12 03:15:07;;;;;;;;;;;;;;;14.51;83.70;99946.66;5053904;28;19912;-85
2022/09/12 03:17:35;;;;;;;;;;;;;;;14.54;83.04;99937.84;5052915;28;19955;-85
2022/09/12 03:20:13;;;;;;;;;;;;;;;14.04;84.51;99934.09;5052299;28;19913;-86
2022/09/12 03:22:52;;;;;;;;;;;;;;;14.01;85.83;99938.22;5054787;28;20003;-86
2022/09/12 03:25:34;;;;;;;;;;;;;;;13.91;86.48;99943.78;5054899;28;19962;-85
2022/09/12 03:28:06;;;;;;;;;;;;;;;13.78;87.79;99939.72;5054772;28;20384;-86
2022/09/12 03:30:36;;;;;;;;;;;;;;;14.00;86.76;99938.50;5039851;28;19917;-86
2022/09/12 03:33:01;;;;;;;;;;;;;;;14.23;84.82;99941.66;5034206;28;19917;-86
2022/09/12 03:35:26;;;;;;;;;;;;;;;14.15;84.18;99934.84;5034219;28;19915;-85
2022/09/12 03:37:52;;;;;;;;;;;;;;;13.69;86.56;99933.22;5034679;28;19909;-87
2022/09/12 03:40:17;;;;;;;;;;;;;;;13.98;85.83;99935.22;5052503;28;19916;-86
2022/09/12 03:42:42;;;;;;;;;;;;;;;13.62;85.68;99926.13;5038205;28;19913;-86
2022/09/12 03:45:08;;;;;;;;;;;;;;;13.70;86.79;99937.56;5034580;28;19935;-87
2022/09/12 03:47:33;;;;;;;;;;;;;;;13.98;86.30;99940.72;5034443;28;20438;-86
2022/09/12 03:49:59;;;;;;;;;;;;;;;13.79;87.07;99941.34;5047324;28;19912;-86
2022/09/12 03:52:24;;;;;;;;;;;;;;;13.93;86.62;99935.28;5053828;28;19932;-86
2022/09/12 03:54:49;;;;;;;;;;;;;;;13.99;85.83;99945.09;5053521;28;20329;-86
2022/09/12 03:57:15;;;;;;;;;;;;;;;14.19;84.23;99940.59;5054351;28;20289;-86
2022/09/12 03:59:40;;;;;;;;;;;;;;;14.19;83.86;99935.94;5052286;28;19954;-85
2022/09/12 04:02:05;;;;;;;;;;;;;;;14.04;84.88;99945.06;5053911;28;20011;-86
2022/09/12 04:04:30;;;;;;;;;;;;;;;14.07;83.74;99941.78;5053950;28;19916;-86
2022/09/12 04:06:55;;;;;;;;;;;;;;;13.78;85.44;99937.00;5053941;28;19908;-85
2022/09/12 04:09:21;;;;;;;;;;;;;;;14.01;84.38;99934.69;5052972;28;20001;-85
2022/09/12 04:11:46;;;;;;;;;;;;;;;14.00;84.49;99933.03;5053821;28;19919;-86
2022/09/12 04:14:11;;;;;;;;;;;;;;;14.17;83.87;99934.56;5052385;28;20324;-86
2022/09/12 04:16:36;;;;;;;;;;;;;;;14.17;83.82;99929.09;5053795;28;19908;-86
2022/09/12 04:19:02;;;;;;;;;;;;;;;14.11;84.05;99922.81;5048758;28;20305;-86
2022/09/12 04:21:27;;;;;;;;;;;;;;;13.98;84.84;99933.31;5033285;28;19952;-85
2022/09/12 04:23:52;;;;;;;;;;;;;;;13.94;84.97;99934.97;5033429;28;19940;-85
2022/09/12 04:26:18;;;;;;;;;;;;;;;13.99;85.24;99931.41;5033160;28;19955;-85
2022/09/12 04:28:45;;;;;;;;;;;;;;;14.16;85.14;99941.13;5036614;28;19920;-85
2022/09/12 04:31:12;;;;;;;;;;;;;;;14.34;83.30;99929.50;5053705;28;19912;-86
2022/09/12 04:33:37;;;;;;;;;;;;;;;14.41;83.24;99922.88;5053067;28;19918;-86
2022/09/12 04:36:04;;;;;;;;;;;;;;;14.09;84.28;99925.03;5053632;28;19964;-85
2022/09/12 04:38:29;;;;;;;;;;;;;;;14.31;83.40;99934.75;5051840;28;19916;-85
2022/09/12 04:40:55;;;;;;;;;;;;;;;14.26;83.19;99927.34;5035304;28;19913;-86
2022/09/12 04:43:21;;;;;;;;;;;;;;;14.27;83.17;99930.94;5053683;28;19967;-86
2022/09/12 04:45:46;;;;;;;;;;;;;;;14.33;83.26;99932.53;5053174;28;19916;-85
2022/09/12 04:48:11;;;;;;;;;;;;;;;14.51;83.01;99922.78;5053080;28;19913;-86
2022/09/12 04:50:36;;;;;;;;;;;;;;;14.70;82.64;99920.16;5051304;28;19912;-86
2022/09/12 04:53:02;;;;;;;;;;;;;;;14.76;82.25;99918.19;5052068;28;20349;-86
2022/09/12 04:55:27;;;;;;;;;;;;;;;14.89;81.03;99915.91;5050821;28;20355;-85
2022/09/12 04:57:52;;;;;;;;;;;;;;;14.92;81.13;99923.53;5052971;28;20586;-87
2022/09/12 05:00:18;;;;;;;;;;;;;;;14.83;81.63;99926.09;5050429;28;19962;-86
2022/09/12 05:02:43;;;;;;;;;;;;;;;14.81;81.58;99923.59;5053140;28;19913;-87
2022/09/12 05:05:08;;;;;;;;;;;;;;;14.71;81.88;99918.22;5053672;28;20261;-87
2022/09/12 05:07:34;;;;;;;;;;;;;;;14.72;81.69;99911.63;5052511;28;20411;-86
2022/09/12 05:09:59;;;;;;;;;;;;;;;14.85;81.56;99912.09;5048253;28;19927;-86
2022/09/12 05:12:25;;;;;;;;;;;;;;;14.75;81.80;99911.03;5056148;28;19908;-85
2022/09/12 05:14:50;;;;;;;;;;;;;;;14.92;81.10;99909.81;5057297;28;20479;-85
2022/09/12 05:17:15;;;;;;;;;;;;;;;14.75;80.96;99904.72;5057337;28;20368;-86
2022/09/12 05:19:41;;;;;;;;;;;;;;;14.55;82.77;99910.13;5055814;28;20365;-86
2022/09/12 05:22:06;;;;;;;;;;;;;;;14.64;82.50;99910.34;5056993;28;19967;-87
2022/09/12 05:24:31;;;;;;;;;;;;;;;14.77;81.79;99908.81;5056954;28;19909;-85
2022/09/12 05:26:57;;;;;;;;;;;;;;;14.92;80.77;99905.16;5056056;28;19915;-86
2022/09/12 05:29:23;;;;;;;;;;;;;;;15.04;80.54;99899.25;5049941;28;19912;-86
2022/09/12 05:31:50;;;;;;;;;;;;;;;15.13;79.97;99895.88;5056397;28;20003;-86
2022/09/12 05:34:16;;;;;;;;;;;;;;;14.89;80.62;99897.47;5056434;28;19912;-85
2022/09/12 05:36:41;;;;;;;;;;;;;;;14.94;81.22;99891.13;5056639;28;19912;-86
2022/09/12 05:39:06;;;;;;;;;;;;;;;14.82;82.01;99892.31;5051615;28;20121;-86
2022/09/12 05:41:32;;;;;;;;;;;;;;;14.90;81.72;99888.16;5050555;28;19943;-85
2022/09/12 05:44:02;;;;;;;;;;;;;;;15.05;81.27;99884.41;5056051;28;20427;-86
2022/09/12 05:46:28;;;;;;;;;;;;;;;15.10;80.97;99880.78;5056397;28;20018;-86
2022/09/12 05:48:54;;;;;;;;;;;;;;;15.11;80.86;99887.09;5054611;28;19925;-86
2022/09/12 05:51:27;;;;;;;;;;;;;;;15.16;80.63;99889.78;5056084;28;20011;-87
2022/09/12 05:53:56;;;;;;;;;;;;;;;15.10;81.25;99890.94;5056304;28;19959;-86
2022/09/12 05:56:22;;;;;;;;;;;;;;;15.25;80.46;99893.53;5055658;28;20552;-86
2022/09/12 05:58:52;;;;;;;;;;;;;;;15.36;80.66;99888.72;5053625;28;19913;-85
2022/09/12 06:01:18;;;;;;;;;;;;;;;15.39;80.72;99898.31;5034128;28;20393;-86
2022/09/12 06:03:47;;;;;;;;;;;;;;;15.40;80.40;99894.44;5034183;28;19999;-87
2022/09/12 06:06:13;;;;;;;;;;;;;;;15.45;80.84;99896.31;5035795;28;19913;-86
2022/09/12 06:08:42;;;;;;;;;;;;;;;15.34;81.01;99896.44;5038442;28;19912;-86
2022/09/12 06:11:10;;;;;;;;;;;;;;;15.51;79.82;99895.94;5036072;28;19917;-85
2022/09/12 06:13:36;;;;;;;;;;;;;;;15.46;79.93;99890.50;5036137;28;19909;-86
2022/09/12 06:16:08;;;;;;;;;;;;;;;15.65;79.57;99889.72;5036111;28;19963;-86
2022/09/12 06:18:34;;;;;;;;;;;;;;;15.81;79.67;99897.72;5037732;28;20004;-85
2022/09/12 06:21:12;;;;;;;;;;;;;;;15.73;79.57;99896.47;5036048;28;19913;-87
2022/09/12 06:23:37;;;;;;;;;;;;;;;15.69;79.96;99893.50;5035408;28;19909;-86
2022/09/12 06:26:03;;;;;;;;;;;;;;;16.03;78.83;99894.41;5035761;28;19956;-87
2022/09/12 06:28:30;;;;;;;;;;;;;;;16.16;78.50;99898.34;5037234;28;20535;-79
2022/09/12 06:31:03;;;;;;;;;;;;;;;16.06;78.10;99898.50;5053626;28;19934;-84
2022/09/12 06:33:29;;;;;;;;;;;;;;;16.18;78.57;99901.63;5054373;28;19948;-84
2022/09/12 06:35:54;;;;;;;;;;;;;;;16.20;78.52;99899.38;5054762;28;19956;-83
2022/09/12 06:38:19;;;;;;;;;;;;;;;16.29;78.24;99907.75;5054177;28;19987;-84
2022/09/12 06:40:44;;;;;;;;;;;;;;;16.27;78.41;99903.69;5054250;28;19954;-85
2022/09/12 06:43:11;;;;;;;;;;;;;;;16.31;77.92;99904.72;5054187;28;19954;-84
2022/09/12 06:45:36;;;;;;;;;;;;;;;16.33;77.93;99897.00;5054298;28;20372;-85
2022/09/12 06:48:01;;;;;;;;;;;;;;;16.29;78.06;99895.97;5046199;28;19923;-85
2022/09/12 06:50:27;;;;;;;;;;;;;;;16.43;77.77;99896.00;5051996;28;19913;-84
2022/09/12 06:52:52;;;;;;;;;;;;;;;16.47;77.67;99898.97;5055175;28;19935;-84
2022/09/12 06:55:17;;;;;;;;;;;;;;;16.54;77.80;99893.88;5054899;28;20351;-85
2022/09/12 06:57:43;;;;;;;;;;;;;;;16.52;77.53;99893.34;5054964;28;20015;-89
2022/09/12 07:00:09;;;;;;;;;;;;;;;16.33;79.07;99894.25;5051375;28;19935;-87
2022/09/12 07:02:34;;;;;;;;;;;;;;;16.63;77.94;99897.56;5054123;28;20087;-85
2022/09/12 07:04:59;;;;;;;;;;;;;;;16.82;77.09;99906.88;5054685;28;19916;-84
2022/09/12 07:07:24;;;;;;;;;;;;;;;16.66;77.84;99902.47;5054656;28;19955;-84
2022/09/12 07:09:50;;;;;;;;;;;;;;;16.87;77.05;99902.09;5053186;28;19912;-84
2022/09/12 07:12:15;;;;;;;;;;;;;;;16.52;79.00;99898.84;5054233;28;20309;-86
2022/09/12 07:14:40;;;;;;;;;;;;;;;16.73;78.81;99906.75;5054928;28;19909;-85
2022/09/12 07:17:07;;;;;;;;;;;;;;;16.51;79.53;99902.75;5054935;28;19915;-86
2022/09/12 07:19:32;;;;;;;;;;;;;;;16.56;79.27;99905.41;5053557;28;19916;-86
2022/09/12 07:21:57;;;;;;;;;;;;;;;16.75;78.95;99902.59;5054975;28;20412;-83
2022/09/12 07:24:23;;;;;;;;;;;;;;;16.90;78.87;99906.19;5054554;28;20016;-86
2022/09/12 07:26:48;;;;;;;;;;;;;;;16.99;78.39;99900.78;5054206;28;19909;-84
2022/09/12 07:29:15;;;;;;;;;;;;;;;16.76;79.40;99911.69;5053214;28;19923;-83
2022/09/12 07:31:40;;;;;;;;;;;;;;;17.06;78.66;99909.47;5054252;28;20268;-82
2022/09/12 07:34:05;;;;;;;;;;;;;;;17.08;78.84;99904.47;5053539;28;19920;-84
2022/09/12 07:36:30;;;;;;;;;;;;;;;17.33;77.90;99913.34;5054573;28;20007;-86
2022/09/12 07:38:56;;;;;;;;;;;;;;;17.41;78.19;99909.06;5053234;28;19959;-87
2022/09/12 07:41:23;;;;;;;;;;;;;;;17.34;78.60;99906.72;5054586;28;19920;-85
2022/09/12 07:43:55;;;;;;;;;;;;;;;17.41;78.15;99900.00;5054567;28;19909;-85
2022/09/12 07:46:21;;;;;;;;;;;;;;;17.51;77.81;99902.53;5052348;28;20281;-85
2022/09/12 07:48:53;;;;;;;;;;;;;;;17.38;79.46;99899.47;5052898;28;19909;-86
2022/09/12 07:51:18;;;;;;;;;;;;;;;17.25;79.97;99892.03;5054143;28;19917;-85
2022/09/12 07:53:44;;;;;;;;;;;;;;;17.19;80.39;99896.03;5054199;28;20365;-85
2022/09/12 07:56:10;;;;;;;;;;;;;;;17.39;79.58;99890.06;5053988;28;19967;-87
2022/09/12 07:58:35;;;;;;;;;;;;;;;17.57;79.08;99887.53;5052957;28;19925;-87
2022/09/12 08:01:04;;;;;;;;;;;;;;;17.47;79.49;99884.97;5054109;28;19924;-83
2022/09/12 08:03:29;;;;;;;;;;;;;;;17.24;79.60;99890.41;5052949;28;19916;-84
2022/09/12 08:06:01;;;;;;;;;;;;;;;17.38;78.94;99896.72;5053386;28;19908;-84
2022/09/12 08:08:28;;;;;;;;;;;;;;;17.43;78.81;99897.75;5053705;28;19909;-84
2022/09/12 08:10:55;;;;;;;;;;;;;;;17.60;78.32;99900.66;5053150;28;19919;-84
2022/09/12 08:13:21;;;;;;;;;;;;;;;17.51;78.80;99899.78;5053735;28;19909;-84
2022/09/12 08:15:46;;;;;;;;;;;;;;;17.59;78.74;99901.00;5052837;28;19958;-87
2022/09/12 08:18:11;;;;;;;;;;;;;;;17.61;78.35;99902.28;5061082;28;19916;-87
2022/09/12 08:20:36;;;;;;;;;;;;;;;17.50;78.55;99903.66;5049233;28;20365;-85
2022/09/12 08:23:02;;;;;;;;;;;;;;;17.64;78.65;99903.63;5052237;28;19913;-85
2022/09/12 08:25:27;;;;;;;;;;;;;;;17.62;78.76;99908.63;5052940;28;19955;-84
2022/09/12 08:27:53;;;;;;;;;;;;;;;17.55;78.49;99906.31;5054019;28;19912;-87
2022/09/12 08:30:18;;;;;;;;;;;;;;;17.57;78.57;99912.31;5051616;28;19912;-85
2022/09/12 08:32:43;;;;;;;;;;;;;;;17.88;77.34;99907.25;5053289;28;19916;-86
2022/09/12 08:35:08;;;;;;;;;;;;;;;17.83;77.75;99910.94;5053311;28;19962;-85
2022/09/12 08:37:33;;;;;;;;;;;;;;;18.00;77.03;99910.25;5053701;28;19913;-85
2022/09/12 08:39:58;;;;;;;;;;;;;;;17.99;77.53;99908.63;5041130;28;19916;-85
2022/09/12 08:42:32;;;;;;;;;;;;;;;17.97;77.46;99899.84;5046931;28;19909;-84
2022/09/12 08:45:20;;;;;;;;;;;;;;;18.05;77.35;99906.56;5053972;28;19908;-84
2022/09/12 08:47:46;;;;;;;;;;;;;;;18.06;77.24;99900.72;5037898;28;19909;-84
2022/09/12 08:50:14;;;;;;;;;;;;;;;18.15;77.15;99897.22;5057663;28;19917;-85
2022/09/12 08:52:44;;;;;;;;;;;;;;;18.23;77.05;99898.44;5057143;28;19912;-83
2022/09/12 08:55:30;;;;;;;;;;;;;;;18.17;76.54;99898.59;5056624;28;19995;-83
2022/09/12 08:57:56;;;;;;;;;;;;;;;18.29;76.09;99906.28;5044801;28;19913;-82
2022/09/12 09:00:21;;;;;;;;;;;;;;;18.43;76.11;99899.88;5052884;28;19935;-82
2022/09/12 09:03:13;;;;;;;;;;;;;;;18.58;75.63;99900.63;5056202;28;19908;-87
2022/09/12 09:05:44;;;;;;;;;;;;;;;18.69;74.68;99902.00;5056222;28;19954;-83
2022/09/12 09:08:25;;;;;;;;;;;;;;;18.64;74.05;99910.41;5056151;28;19909;-83
2022/09/12 09:11:17;;;;;;;;;;;;;;;18.61;74.42;99905.53;5055767;28;19913;-85
2022/09/12 09:16:35;;;;;;;;;;;;;;;18.74;74.39;99895.50;5056978;28;19934;-85
2022/09/12 09:19:03;;;;;;;;;;;;;;;18.84;74.22;99897.19;5055620;28;19912;-85
2022/09/12 09:21:39;;;;;;;;;;;;;;;18.87;73.98;99891.84;5055477;28;19909;-86
2022/09/12 09:24:10;;;;;;;;;;;;;;;18.96;72.70;99897.41;5056684;28;19909;-85
2022/09/12 09:26:42;;;;;;;;;;;;;;;18.82;73.22;99902.22;5056669;28;19915;-84
2022/09/12 09:29:15;;;;;;;;;;;;;;;18.83;72.10;99901.09;5055635;28;20267;-84
2022/09/12 09:31:41;;;;;;;;;;;;;;;18.82;72.71;99896.69;5050321;28;19974;-83
2022/09/12 09:34:14;;;;;;;;;;;;;;;18.88;72.22;99898.19;5055818;28;19920;-84
2022/09/12 09:37:03;;;;;;;;;;;;;;;18.87;71.69;99899.31;5056476;28;20027;-82
2022/09/12 09:39:28;;;;;;;;;;;;;;;18.95;71.74;99900.50;5055398;28;20299;-81
2022/09/12 09:41:54;;;;;;;;;;;;;;;18.85;70.94;99893.31;5056352;28;20063;-83
2022/09/12 09:44:19;;;;;;;;;;;;;;;18.97;70.76;99899.06;5056595;28;19913;-82
2022/09/12 09:46:45;;;;;;;;;;;;;;;18.99;70.98;99888.50;5055343;28;20717;-82
2022/09/12 09:49:11;;;;;;;;;;;;;;;19.06;70.97;99892.75;5051875;28;19913;-82
2022/09/12 09:51:38;;;;;;;;;;;;;;;19.03;71.26;99891.44;5056183;28;19919;-82
2022/09/12 09:54:16;;;;;;;;;;;;;;;19.10;71.16;99888.22;5055865;28;19931;-81
2022/09/12 09:56:41;;;;;;;;;;;;;;;19.31;71.47;99882.09;5054828;28;19915;-81
2022/09/12 09:59:11;;;;;;;;;;;;;;;19.39;70.18;99878.56;5055001;28;20438;-81
2022/09/12 10:01:42;;;;;;;;;;;;;;;19.45;69.41;99877.25;5055393;28;19912;-82
2022/09/12 10:04:15;;;;;;;;;;;;;;;19.63;69.17;99877.28;5055682;28;19952;-81
2022/09/12 10:06:41;;;;;;;;;;;;;;;19.74;68.44;99865.91;5055871;28;20631;-81
2022/09/12 10:09:38;;;;;;;;;;;;;;;19.73;68.51;99858.75;5054198;28;19916;-84
2022/09/12 10:12:32;;;;;;;;;;;;;;;19.70;67.77;99863.81;5043803;28;19909;-81
2022/09/12 10:14:59;;;;;;;;;;;;;;;19.70;67.75;99861.03;5051145;28;19908;-83
2022/09/12 10:17:25;;;;;;;;;;;;;;;19.62;67.98;99859.06;5055949;28;20362;-82
2022/09/12 10:19:52;;;;;;;;;;;;;;;19.67;68.77;99864.44;5054666;28;20613;-82
2022/09/12 10:22:18;;;;;;;;;;;;;;;19.74;66.75;99855.66;5055889;28;19960;-83
2022/09/12 10:24:49;;;;;;;;;;;;;;;19.88;66.27;99854.69;5055929;28;19919;-83
2022/09/12 10:27:24;;;;;;;;;;;;;;;19.83;66.55;99853.69;5055828;28;19916;-83
2022/09/12 10:29:53;;;;;;;;;;;;;;;19.77;66.57;99859.75;5054934;28;20289;-80
2022/09/12 10:32:22;;;;;;;;;;;;;;;19.91;66.36;99854.84;5055308;28;20407;-81
2022/09/12 10:34:47;;;;;;;;;;;;;;;20.04;67.07;99846.69;5054916;28;19913;-83
2022/09/12 10:37:18;;;;;;;;;;;;;;;20.07;66.63;99846.06;5055503;28;20261;-81
2022/09/12 10:39:49;;;;;;;;;;;;;;;20.15;64.60;99845.25;5055046;28;19913;-82
2022/09/12 10:42:14;;;;;;;;;;;;;;;20.22;63.81;99849.47;5055559;28;19915;-81
2022/09/12 10:44:51;;;;;;;;;;;;;;;20.32;63.50;99846.34;5052502;28;19991;-82
2022/09/12 10:47:21;;;;;;;;;;;;;;;20.33;63.12;99841.63;5055104;28;19917;-81
2022/09/12 10:49:46;;;;;;;;;;;;;;;20.45;61.96;99843.72;5049509;28;19995;-84
2022/09/12 10:52:24;;;;;;;;;;;;;;;20.61;62.66;99835.66;5055339;28;19948;-84
2022/09/12 10:54:50;;;;;;;;;;;;;;;20.61;61.05;99836.50;5054040;28;19915;-83
2022/09/12 10:57:27;;;;;;;;;;;;;;;20.62;63.13;99831.78;5055333;28;19909;-83
2022/09/12 10:59:53;;;;;;;;;;;;;;;20.49;63.14;99819.75;5053497;28;20366;-82
2022/09/12 11:02:33;;;;;;;;;;;;;;;20.65;62.96;99826.38;5054363;28;19908;-83
2022/09/12 11:05:06;;;;;;;;;;;;;;;20.48;64.09;99815.38;5050470;28;20046;-82
2022/09/12 11:07:36;;;;;;;;;;;;;;;20.71;62.32;99818.69;5053987;28;20281;-82
2022/09/12 11:10:20;;;;;;;;;;;;;;;20.93;60.36;99816.00;5048226;28;20001;-83
2022/09/12 11:12:50;;;;;;;;;;;;;;;20.75;61.78;99816.06;5049198;28;19913;-81
2022/09/12 11:15:18;;;;;;;;;;;;;;;20.88;62.15;99815.03;5061406;28;19988;-84
2022/09/12 11:17:50;;;;;;;;;;;;;;;20.84;61.06;99811.31;5051141;28;19919;-83
2022/09/12 11:20:33;;;;;;;;;;;;;;;21.06;60.33;99795.56;5050127;28;19913;-82
2022/09/12 11:23:04;;;;;;;;;;;;;;;21.34;58.70;99800.59;5054411;28;20456;-82
2022/09/12 11:25:30;;;;;;;;;;;;;;;21.42;58.51;99798.06;5053798;28;19909;-81
2022/09/12 11:27:59;;;;;;;;;;;;;;;21.56;58.38;99801.41;5054173;28;19942;-81
2022/09/12 11:30:24;;;;;;;;;;;;;;;21.52;59.17;99800.44;5053278;28;20395;-82
2022/09/12 11:32:59;;;;;;;;;;;;;;;21.56;58.20;99795.06;5053714;28;19909;-81
2022/09/12 11:35:28;;;;;;;;;;;;;;;21.63;57.87;99794.50;5053559;28;19909;-81
2022/09/12 11:38:02;;;;;;;;;;;;;;;21.55;57.73;99785.91;5053695;28;19952;-80
2022/09/12 11:40:32;;;;;;;;;;;;;;;21.82;57.48;99780.13;5038291;28;19916;-82
2022/09/12 11:43:00;;;;;;;;;;;;;;;21.81;56.20;99784.88;5034200;28;19916;-81
2022/09/12 11:45:31;;;;;;;;;;;;;;;21.90;56.33;99782.06;5033799;28;19905;-81
2022/09/12 11:48:00;;;;;;;;;;;;;;;21.97;56.57;99787.03;5038992;28;19909;-80
2022/09/12 11:50:27;;;;;;;;;;;;;;;21.95;55.13;99778.22;5052187;28;19991;-80
2022/09/12 11:52:55;;;;;;;;;;;;;;;21.80;56.30;99780.47;5053213;28;19909;-80
2022/09/12 11:55:24;;;;;;;;;;;;;;;21.78;54.80;99771.66;5053253;28;19935;-80
2022/09/12 11:57:57;;;;;;;;;;;;;;;21.72;55.45;99780.56;5053264;28;19995;-80
2022/09/12 12:00:46;;;;;;;;;;;;;;;21.83;57.04;99775.41;5052285;28;19916;-80
2022/09/12 12:03:37;;;;;;;;;;;;;;;21.88;56.09;99772.44;5053053;28;19915;-80
2022/09/12 12:06:05;;;;;;;;;;;;;;;21.99;54.65;99768.06;5033089;28;19909;-79
2022/09/12 12:08:36;;;;;;;;;;;;;;;22.11;55.07;99770.06;5039256;28;19908;-80
2022/09/12 12:11:02;;;;;;;;;;;;;;;22.20;53.76;99767.19;5052219;28;19920;-79
2022/09/12 12:13:39;;;;;;;;;;;;;;;22.38;52.90;99765.03;5053428;28;19955;-82
2022/09/12 12:16:06;;;;;;;;;;;;;;;22.22;53.66;99758.50;5062459;28;20307;-80
2022/09/12 12:18:32;;;;;;;;;;;;;;;22.01;55.07;99754.66;5069278;28;19912;-79
2022/09/12 12:21:17;;;;;;;;;;;;;;;22.16;54.04;99755.16;5052046;28;19991;-80
2022/09/12 12:24:01;;;;;;;;;;;;;;;22.13;55.09;99758.63;5053269;28;19913;-82
2022/09/12 12:26:39;;;;;;;;;;;;;;;22.23;53.85;99760.16;5053416;28;20350;-79
2022/09/12 12:29:08;;;;;;;;;;;;;;;22.27;53.42;99756.31;5051842;28;19917;-79
2022/09/12 12:32:03;;;;;;;;;;;;;;;21.94;54.83;99759.97;5052387;28;19912;-79
2022/09/12 12:34:35;;;;;;;;;;;;;;;22.01;52.96;99749.13;5051272;28;20338;-82
2022/09/12 12:37:19;;;;;;;;;;;;;;;22.26;52.06;99748.34;5053323;28;19912;-81
2022/09/12 12:39:48;;;;;;;;;;;;;;;22.52;50.94;99749.97;5052315;28;19936;-81
2022/09/12 12:42:34;;;;;;;;;;;;;;;22.35;51.78;99746.25;5053101;28;19916;-80
2022/09/12 12:45:02;;;;;;;;;;;;;;;22.46;52.18;99745.81;5053405;28;19912;-81
2022/09/12 12:47:36;;;;;;;;;;;;;;;22.36;52.34;99741.53;5053040;28;20489;-81
2022/09/12 12:50:06;;;;;;;;;;;;;;;22.59;50.66;99739.13;5051599;28;19924;-80
2022/09/12 12:52:43;;;;;;;;;;;;;;;22.66;51.02;99724.66;5053203;28;19913;-79
2022/09/12 12:55:13;;;;;;;;;;;;;;;22.57;50.59;99718.41;5052659;28;20586;-81
2022/09/12 12:57:47;;;;;;;;;;;;;;;22.64;51.37;99721.38;5052974;28;20242;-79
2022/09/12 13:00:28;;;;;;;;;;;;;;;22.76;51.08;99708.69;5038617;28;20363;-80